sensor_id;sensor_type;location;lat;lon;timestamp;pressure;altitude;pressure_sealevel;temperature;humidity
56719;BME280;42597;40.636;0.278;2022-08-30T00:02:05;97390.78;;;26.04;75.36
56719;BME280;42597;40.636;0.278;2022-08-30T00:04:31;97384.38;;;26.07;74.96
56719;BME280;42597;40.636;0.278;2022-08-30T00:06:58;97381.59;;;26.07;74.59
56719;BME280;42597;40.636;0.278;2022-08-30T00:09:24;97377.28;;;26.19;73.61
56719;BME280;42597;40.636;0.278;2022-08-30T00:11:49;97377.59;;;26.08;73.70
56719;BME280;42597;40.636;0.278;2022-08-30T00:14:16;97375.19;;;25.85;74.62
56719;BME280;42597;40.636;0.278;2022-08-30T00:16:42;97375.53;;;25.45;76.35
56719;BME280;42597;40.636;0.278;2022-08-30T00:19:07;97375.47;;;25.74;75.25
56719;BME280;42597;40.636;0.278;2022-08-30T00:21:33;97372.16;;;25.08;77.70
56719;BME280;42597;40.636;0.278;2022-08-30T00:23:58;97370.88;;;25.42;77.23
56719;BME280;42597;40.636;0.278;2022-08-30T00:26:24;97368.03;;;25.58;75.79
56719;BME280;42597;40.636;0.278;2022-08-30T00:28:49;97369.84;;;25.78;74.97
56719;BME280;42597;40.636;0.278;2022-08-30T00:31:15;97369.44;;;26.18;72.83
56719;BME280;42597;40.636;0.278;2022-08-30T00:33:41;97368.75;;;26.01;73.40
56719;BME280;42597;40.636;0.278;2022-08-30T00:36:07;97373.41;;;25.91;73.98
56719;BME280;42597;40.636;0.278;2022-08-30T00:38:32;97368.53;;;25.95;72.88
56719;BME280;42597;40.636;0.278;2022-08-30T00:40:58;97359.91;;;25.93;73.33
56719;BME280;42597;40.636;0.278;2022-08-30T00:43:26;97371.28;;;25.82;73.01
56719;BME280;42597;40.636;0.278;2022-08-30T00:45:53;97366.44;;;25.87;73.08
56719;BME280;42597;40.636;0.278;2022-08-30T00:48:19;97368.91;;;25.55;73.59
56719;BME280;42597;40.636;0.278;2022-08-30T00:50:52;97364.38;;;25.20;75.62
56719;BME280;42597;40.636;0.278;2022-08-30T00:53:26;97357.59;;;25.37;75.36
56719;BME280;42597;40.636;0.278;2022-08-30T00:55:54;97356.28;;;25.54;74.16
56719;BME280;42597;40.636;0.278;2022-08-30T00:58:25;97350.00;;;25.67;73.55
56719;BME280;42597;40.636;0.278;2022-08-30T01:00:54;97352.41;;;25.65;73.65
56719;BME280;42597;40.636;0.278;2022-08-30T01:03:21;97362.66;;;25.26;74.66
56719;BME280;42597;40.636;0.278;2022-08-30T01:05:48;97349.41;;;24.88;75.97
56719;BME280;42597;40.636;0.278;2022-08-30T01:08:16;97344.19;;;25.06;76.21
56719;BME280;42597;40.636;0.278;2022-08-30T01:10:43;97340.75;;;25.44;74.25
56719;BME280;42597;40.636;0.278;2022-08-30T01:13:09;97337.13;;;25.47;73.53
56719;BME280;42597;40.636;0.278;2022-08-30T01:15:39;97339.00;;;25.38;73.57
56719;BME280;42597;40.636;0.278;2022-08-30T01:18:05;97336.56;;;25.52;72.64
56719;BME280;42597;40.636;0.278;2022-08-30T01:20:36;97333.78;;;25.40;73.21
56719;BME280;42597;40.636;0.278;2022-08-30T01:23:12;97336.22;;;25.08;74.02
56719;BME280;42597;40.636;0.278;2022-08-30T01:25:41;97334.25;;;25.38;72.76
56719;BME280;42597;40.636;0.278;2022-08-30T01:28:12;97334.72;;;25.49;72.90
56719;BME280;42597;40.636;0.278;2022-08-30T01:30:38;97333.63;;;25.18;72.95
56719;BME280;42597;40.636;0.278;2022-08-30T01:33:05;97339.03;;;24.92;74.08
56719;BME280;42597;40.636;0.278;2022-08-30T01:35:42;97335.94;;;24.90;75.38
56719;BME280;42597;40.636;0.278;2022-08-30T01:38:09;97335.53;;;25.04;74.65
56719;BME280;42597;40.636;0.278;2022-08-30T01:40:36;97337.00;;;25.38;72.79
56719;BME280;42597;40.636;0.278;2022-08-30T01:43:01;97324.03;;;25.22;73.13
56719;BME280;42597;40.636;0.278;2022-08-30T01:45:27;97329.44;;;25.26;72.46
56719;BME280;42597;40.636;0.278;2022-08-30T01:47:52;97333.13;;;25.35;72.26
56719;BME280;42597;40.636;0.278;2022-08-30T01:50:18;97333.63;;;25.18;71.88
56719;BME280;42597;40.636;0.278;2022-08-30T01:52:44;97344.03;;;25.14;72.63
56719;BME280;42597;40.636;0.278;2022-08-30T01:55:09;97337.63;;;25.17;72.24
56719;BME280;42597;40.636;0.278;2022-08-30T01:57:35;97333.53;;;25.21;72.21
56719;BME280;42597;40.636;0.278;2022-08-30T02:00:00;97335.31;;;25.28;71.59
56719;BME280;42597;40.636;0.278;2022-08-30T02:02:28;97337.34;;;24.82;73.46
56719;BME280;42597;40.636;0.278;2022-08-30T02:04:54;97340.25;;;24.91;73.34
56719;BME280;42597;40.636;0.278;2022-08-30T02:07:22;97344.94;;;25.36;70.99
56719;BME280;42597;40.636;0.278;2022-08-30T02:09:48;97346.59;;;25.04;72.08
56719;BME280;42597;40.636;0.278;2022-08-30T02:12:14;97349.03;;;24.73;73.01
56719;BME280;42597;40.636;0.278;2022-08-30T02:14:40;97359.50;;;24.33;74.28
56719;BME280;42597;40.636;0.278;2022-08-30T02:17:08;97354.50;;;23.55;79.21
56719;BME280;42597;40.636;0.278;2022-08-30T02:19:34;97354.69;;;23.48;80.05
56719;BME280;42597;40.636;0.278;2022-08-30T02:22:00;97353.16;;;23.63;79.81
56719;BME280;42597;40.636;0.278;2022-08-30T02:24:26;97347.41;;;24.43;76.37
56719;BME280;42597;40.636;0.278;2022-08-30T02:26:51;97344.09;;;24.81;73.97
56719;BME280;42597;40.636;0.278;2022-08-30T02:29:18;97343.78;;;24.92;73.11
56719;BME280;42597;40.636;0.278;2022-08-30T02:31:45;97341.47;;;24.90;72.43
56719;BME280;42597;40.636;0.278;2022-08-30T02:34:10;97328.31;;;25.10;71.50
56719;BME280;42597;40.636;0.278;2022-08-30T02:36:36;97336.09;;;24.54;73.99
56719;BME280;42597;40.636;0.278;2022-08-30T02:39:05;97330.06;;;24.88;72.40
56719;BME280;42597;40.636;0.278;2022-08-30T02:41:30;97329.63;;;24.60;72.99
56719;BME280;42597;40.636;0.278;2022-08-30T02:43:56;97323.41;;;24.56;72.70
56719;BME280;42597;40.636;0.278;2022-08-30T02:46:25;97321.09;;;24.84;71.50
56719;BME280;42597;40.636;0.278;2022-08-30T02:48:51;97329.31;;;24.42;73.17
56719;BME280;42597;40.636;0.278;2022-08-30T02:51:16;97322.75;;;24.52;72.76
56719;BME280;42597;40.636;0.278;2022-08-30T02:53:43;97320.13;;;24.61;72.29
56719;BME280;42597;40.636;0.278;2022-08-30T02:56:10;97325.91;;;24.51;72.45
56719;BME280;42597;40.636;0.278;2022-08-30T02:58:36;97318.94;;;24.46;72.25
56719;BME280;42597;40.636;0.278;2022-08-30T03:01:03;97328.94;;;24.40;72.86
56719;BME280;42597;40.636;0.278;2022-08-30T03:03:30;97327.47;;;24.52;72.25
56719;BME280;42597;40.636;0.278;2022-08-30T03:05:56;97323.94;;;24.51;71.80
56719;BME280;42597;40.636;0.278;2022-08-30T03:08:21;97310.97;;;24.32;72.42
56719;BME280;42597;40.636;0.278;2022-08-30T03:10:47;97319.53;;;23.88;73.92
56719;BME280;42597;40.636;0.278;2022-08-30T03:13:12;97298.03;;;24.61;72.03
56719;BME280;42597;40.636;0.278;2022-08-30T03:15:38;97301.84;;;24.19;72.48
56719;BME280;42597;40.636;0.278;2022-08-30T03:18:05;97292.00;;;24.18;72.87
56719;BME280;42597;40.636;0.278;2022-08-30T03:20:31;97303.38;;;24.36;72.08
56719;BME280;42597;40.636;0.278;2022-08-30T03:22:56;97301.69;;;24.42;71.49
56719;BME280;42597;40.636;0.278;2022-08-30T03:25:22;97298.22;;;24.38;71.80
56719;BME280;42597;40.636;0.278;2022-08-30T03:27:48;97297.16;;;24.32;71.68
56719;BME280;42597;40.636;0.278;2022-08-30T03:30:16;97293.53;;;24.35;71.52
56719;BME280;42597;40.636;0.278;2022-08-30T03:32:42;97296.13;;;24.58;70.45
56719;BME280;42597;40.636;0.278;2022-08-30T03:35:07;97298.91;;;23.93;72.88
56719;BME280;42597;40.636;0.278;2022-08-30T03:37:34;97302.47;;;23.57;73.75
56719;BME280;42597;40.636;0.278;2022-08-30T03:40:03;97294.25;;;24.23;72.41
56719;BME280;42597;40.636;0.278;2022-08-30T03:42:28;97293.41;;;24.09;71.96
56719;BME280;42597;40.636;0.278;2022-08-30T03:44:54;97294.63;;;24.41;70.94
56719;BME280;42597;40.636;0.278;2022-08-30T03:47:20;97295.97;;;24.49;70.47
56719;BME280;42597;40.636;0.278;2022-08-30T03:49:46;97295.97;;;24.49;70.06
56719;BME280;42597;40.636;0.278;2022-08-30T03:52:11;97297.88;;;24.52;70.50
56719;BME280;42597;40.636;0.278;2022-08-30T03:54:37;97289.78;;;24.45;69.56
56719;BME280;42597;40.636;0.278;2022-08-30T03:57:04;97301.00;;;24.38;70.32
56719;BME280;42597;40.636;0.278;2022-08-30T03:59:30;97299.78;;;24.39;70.12
56719;BME280;42597;40.636;0.278;2022-08-30T04:01:56;97290.94;;;24.60;69.22
56719;BME280;42597;40.636;0.278;2022-08-30T04:04:24;97290.44;;;24.33;70.48
56719;BME280;42597;40.636;0.278;2022-08-30T04:06:50;97290.78;;;24.19;70.52
56719;BME280;42597;40.636;0.278;2022-08-30T04:09:16;97296.41;;;23.99;71.14
56719;BME280;42597;40.636;0.278;2022-08-30T04:11:42;97289.59;;;24.20;70.71
56719;BME280;42597;40.636;0.278;2022-08-30T04:14:08;97283.56;;;24.08;70.71
56719;BME280;42597;40.636;0.278;2022-08-30T04:16:34;97283.03;;;24.30;70.21
56719;BME280;42597;40.636;0.278;2022-08-30T04:19:00;97284.75;;;24.24;69.25
56719;BME280;42597;40.636;0.278;2022-08-30T04:21:25;97288.97;;;23.43;72.66
56719;BME280;42597;40.636;0.278;2022-08-30T04:23:51;97280.72;;;23.59;72.19
56719;BME280;42597;40.636;0.278;2022-08-30T04:26:17;97284.34;;;23.40;72.52
56719;BME280;42597;40.636;0.278;2022-08-30T04:28:42;97282.53;;;23.13;73.96
56719;BME280;42597;40.636;0.278;2022-08-30T04:31:13;97284.75;;;23.91;72.51
56719;BME280;42597;40.636;0.278;2022-08-30T04:33:40;97282.16;;;23.84;71.09
56719;BME280;42597;40.636;0.278;2022-08-30T04:36:07;97279.50;;;23.80;72.53
56719;BME280;42597;40.636;0.278;2022-08-30T04:38:34;97292.00;;;24.18;70.52
56719;BME280;42597;40.636;0.278;2022-08-30T04:41:00;97288.41;;;24.04;69.93
56719;BME280;42597;40.636;0.278;2022-08-30T04:43:27;97286.31;;;24.25;69.56
56719;BME280;42597;40.636;0.278;2022-08-30T04:45:53;97289.81;;;23.24;72.34
56719;BME280;42597;40.636;0.278;2022-08-30T04:48:20;97293.00;;;22.79;74.96
56719;BME280;42597;40.636;0.278;2022-08-30T04:50:49;97287.25;;;23.33;72.65
56719;BME280;42597;40.636;0.278;2022-08-30T04:53:15;97296.22;;;23.37;73.00
56719;BME280;42597;40.636;0.278;2022-08-30T04:55:42;97291.25;;;23.84;71.29
56719;BME280;42597;40.636;0.278;2022-08-30T04:58:09;97297.00;;;23.90;70.65
56719;BME280;42597;40.636;0.278;2022-08-30T05:00:35;97295.84;;;23.35;72.00
56719;BME280;42597;40.636;0.278;2022-08-30T05:03:02;97292.03;;;22.89;73.56
56719;BME280;42597;40.636;0.278;2022-08-30T05:05:28;97293.63;;;22.66;74.74
56719;BME280;42597;40.636;0.278;2022-08-30T05:08:08;97292.69;;;22.77;74.53
56719;BME280;42597;40.636;0.278;2022-08-30T05:10:37;97296.47;;;22.83;74.48
56719;BME280;42597;40.636;0.278;2022-08-30T05:13:03;97285.56;;;23.55;72.52
56719;BME280;42597;40.636;0.278;2022-08-30T05:15:29;97292.53;;;23.96;70.16
56719;BME280;42597;40.636;0.278;2022-08-30T05:17:54;97295.88;;;23.87;70.59
56719;BME280;42597;40.636;0.278;2022-08-30T05:20:20;97305.44;;;23.83;70.61
56719;BME280;42597;40.636;0.278;2022-08-30T05:22:46;97311.44;;;23.61;70.79
56719;BME280;42597;40.636;0.278;2022-08-30T05:25:15;97302.69;;;23.83;70.24
56719;BME280;42597;40.636;0.278;2022-08-30T05:27:41;97312.81;;;23.33;71.74
56719;BME280;42597;40.636;0.278;2022-08-30T05:30:07;97299.69;;;23.57;71.98
56719;BME280;42597;40.636;0.278;2022-08-30T05:32:33;97312.63;;;23.97;69.57
56719;BME280;42597;40.636;0.278;2022-08-30T05:34:58;97316.41;;;23.86;69.80
56719;BME280;42597;40.636;0.278;2022-08-30T05:37:24;97313.72;;;23.67;70.85
56719;BME280;42597;40.636;0.278;2022-08-30T05:39:50;97314.78;;;23.89;70.79
56719;BME280;42597;40.636;0.278;2022-08-30T05:42:15;97312.19;;;23.98;69.96
56719;BME280;42597;40.636;0.278;2022-08-30T05:44:41;97317.63;;;24.02;69.50
56719;BME280;42597;40.636;0.278;2022-08-30T05:47:06;97317.03;;;23.94;70.40
56719;BME280;42597;40.636;0.278;2022-08-30T05:49:32;97324.97;;;23.92;71.26
56719;BME280;42597;40.636;0.278;2022-08-30T05:51:57;97315.78;;;23.79;70.02
56719;BME280;42597;40.636;0.278;2022-08-30T05:54:23;97329.44;;;23.30;71.36
56719;BME280;42597;40.636;0.278;2022-08-30T05:56:49;97328.34;;;23.44;71.13
56719;BME280;42597;40.636;0.278;2022-08-30T05:59:15;97322.38;;;23.29;72.80
56719;BME280;42597;40.636;0.278;2022-08-30T06:01:43;97338.03;;;23.72;71.70
56719;BME280;42597;40.636;0.278;2022-08-30T06:04:11;97343.94;;;23.90;70.71
56719;BME280;42597;40.636;0.278;2022-08-30T06:06:39;97343.22;;;23.86;70.46
56719;BME280;42597;40.636;0.278;2022-08-30T06:09:07;97346.25;;;23.92;70.13
56719;BME280;42597;40.636;0.278;2022-08-30T06:11:34;97343.59;;;23.88;69.82
56719;BME280;42597;40.636;0.278;2022-08-30T06:14:00;97353.81;;;23.87;69.45
56719;BME280;42597;40.636;0.278;2022-08-30T06:16:27;97357.47;;;23.84;69.44
56719;BME280;42597;40.636;0.278;2022-08-30T06:18:55;97359.97;;;23.95;68.93
56719;BME280;42597;40.636;0.278;2022-08-30T06:21:23;97358.16;;;23.88;69.38
56719;BME280;42597;40.636;0.278;2022-08-30T06:23:50;97360.44;;;24.10;68.29
56719;BME280;42597;40.636;0.278;2022-08-30T06:26:15;97361.03;;;24.01;68.94
56719;BME280;42597;40.636;0.278;2022-08-30T06:28:41;97367.16;;;24.09;68.51
56719;BME280;42597;40.636;0.278;2022-08-30T06:31:09;97364.00;;;24.43;67.78
56719;BME280;42597;40.636;0.278;2022-08-30T06:33:35;97352.50;;;24.28;67.81
56719;BME280;42597;40.636;0.278;2022-08-30T06:36:10;97349.97;;;24.01;68.52
56719;BME280;42597;40.636;0.278;2022-08-30T06:38:36;97353.78;;;24.07;68.60
56719;BME280;42597;40.636;0.278;2022-08-30T06:41:09;97360.69;;;24.16;68.51
56719;BME280;42597;40.636;0.278;2022-08-30T06:43:35;97360.50;;;24.23;68.33
56719;BME280;42597;40.636;0.278;2022-08-30T06:46:06;97361.56;;;24.12;68.57
56719;BME280;42597;40.636;0.278;2022-08-30T06:48:33;97377.78;;;24.27;67.90
56719;BME280;42597;40.636;0.278;2022-08-30T06:50:58;97382.69;;;24.35;67.70
56719;BME280;42597;40.636;0.278;2022-08-30T06:53:25;97383.00;;;24.41;67.09
56719;BME280;42597;40.636;0.278;2022-08-30T06:56:03;97384.88;;;24.60;66.62
56719;BME280;42597;40.636;0.278;2022-08-30T06:58:30;97384.59;;;24.71;66.09
56719;BME280;42597;40.636;0.278;2022-08-30T07:00:55;97381.25;;;24.63;66.64
56719;BME280;42597;40.636;0.278;2022-08-30T07:03:21;97382.78;;;24.48;66.84
56719;BME280;42597;40.636;0.278;2022-08-30T07:05:47;97384.16;;;24.89;66.18
56719;BME280;42597;40.636;0.278;2022-08-30T07:08:13;97371.47;;;24.26;68.41
56719;BME280;42597;40.636;0.278;2022-08-30T07:10:40;97379.59;;;24.66;67.07
56719;BME280;42597;40.636;0.278;2022-08-30T07:13:07;97387.63;;;24.77;66.31
56719;BME280;42597;40.636;0.278;2022-08-30T07:15:34;97392.22;;;25.13;65.21
56719;BME280;42597;40.636;0.278;2022-08-30T07:18:00;97405.81;;;25.36;64.57
56719;BME280;42597;40.636;0.278;2022-08-30T07:20:44;97387.50;;;25.55;65.51
56719;BME280;42597;40.636;0.278;2022-08-30T07:23:10;97407.19;;;25.15;64.78
56719;BME280;42597;40.636;0.278;2022-08-30T07:25:37;97410.63;;;25.03;66.13
56719;BME280;42597;40.636;0.278;2022-08-30T07:28:04;97394.19;;;25.70;65.15
56719;BME280;42597;40.636;0.278;2022-08-30T07:30:29;97404.25;;;25.35;64.72
56719;BME280;42597;40.636;0.278;2022-08-30T07:32:56;97397.44;;;25.52;64.14
56719;BME280;42597;40.636;0.278;2022-08-30T07:35:22;97395.56;;;26.17;64.13
56719;BME280;42597;40.636;0.278;2022-08-30T07:37:47;97394.22;;;26.60;63.56
56719;BME280;42597;40.636;0.278;2022-08-30T07:40:13;97402.09;;;26.48;62.81
56719;BME280;42597;40.636;0.278;2022-08-30T07:42:38;97405.09;;;26.16;62.16
56719;BME280;42597;40.636;0.278;2022-08-30T07:45:06;97401.97;;;26.39;66.26
56719;BME280;42597;40.636;0.278;2022-08-30T07:47:32;97413.72;;;25.92;63.18
56719;BME280;42597;40.636;0.278;2022-08-30T07:50:03;97414.47;;;25.80;64.87
56719;BME280;42597;40.636;0.278;2022-08-30T07:52:30;97419.09;;;25.70;65.88
56719;BME280;42597;40.636;0.278;2022-08-30T07:54:56;97421.41;;;25.72;67.48
56719;BME280;42597;40.636;0.278;2022-08-30T07:57:23;97419.59;;;26.07;65.29
56719;BME280;42597;40.636;0.278;2022-08-30T07:59:49;97413.28;;;26.06;66.42
56719;BME280;42597;40.636;0.278;2022-08-30T08:02:16;97415.81;;;26.01;66.34
56719;BME280;42597;40.636;0.278;2022-08-30T08:04:41;97413.03;;;26.65;68.97
56719;BME280;42597;40.636;0.278;2022-08-30T08:07:07;97421.66;;;27.27;68.23
56719;BME280;42597;40.636;0.278;2022-08-30T08:09:32;97415.53;;;27.10;68.55
56719;BME280;42597;40.636;0.278;2022-08-30T08:11:58;97412.72;;;26.97;69.04
56719;BME280;42597;40.636;0.278;2022-08-30T08:14:24;97413.78;;;27.47;66.76
56719;BME280;42597;40.636;0.278;2022-08-30T08:16:50;97417.50;;;26.97;64.78
56719;BME280;42597;40.636;0.278;2022-08-30T08:19:16;97421.31;;;27.69;65.69
56719;BME280;42597;40.636;0.278;2022-08-30T08:21:44;97423.66;;;27.70;64.46
56719;BME280;42597;40.636;0.278;2022-08-30T08:24:10;97424.63;;;27.98;63.53
56719;BME280;42597;40.636;0.278;2022-08-30T08:26:37;97429.34;;;27.23;63.29
56719;BME280;42597;40.636;0.278;2022-08-30T08:29:04;97427.13;;;27.62;65.77
56719;BME280;42597;40.636;0.278;2022-08-30T08:31:30;97427.53;;;27.73;65.02
56719;BME280;42597;40.636;0.278;2022-08-30T08:33:56;97433.66;;;26.64;66.20
56719;BME280;42597;40.636;0.278;2022-08-30T08:36:24;97431.78;;;27.65;64.26
56719;BME280;42597;40.636;0.278;2022-08-30T08:38:50;97436.22;;;26.32;68.35
56719;BME280;42597;40.636;0.278;2022-08-30T08:41:24;97438.41;;;28.11;64.03
56719;BME280;42597;40.636;0.278;2022-08-30T08:43:52;97439.84;;;28.25;63.48
56719;BME280;42597;40.636;0.278;2022-08-30T08:49:11;97459.53;;;28.09;63.52
56719;BME280;42597;40.636;0.278;2022-08-30T08:51:38;97449.25;;;27.87;64.80
56719;BME280;42597;40.636;0.278;2022-08-30T08:54:34;97447.19;;;28.10;64.04
56719;BME280;42597;40.636;0.278;2022-08-30T08:57:02;97455.78;;;28.34;64.11
56719;BME280;42597;40.636;0.278;2022-08-30T08:59:27;97463.59;;;28.48;63.90
56719;BME280;42597;40.636;0.278;2022-08-30T09:01:57;97464.50;;;28.94;62.09
56719;BME280;42597;40.636;0.278;2022-08-30T09:04:28;97461.47;;;28.52;63.03
56719;BME280;42597;40.636;0.278;2022-08-30T09:09:31;97471.34;;;28.53;63.32
56719;BME280;42597;40.636;0.278;2022-08-30T09:11:57;97474.78;;;28.66;62.47
56719;BME280;42597;40.636;0.278;2022-08-30T09:14:30;97477.34;;;28.42;61.17
56719;BME280;42597;40.636;0.278;2022-08-30T09:17:08;97485.34;;;27.87;65.19
56719;BME280;42597;40.636;0.278;2022-08-30T09:19:43;97492.19;;;28.48;62.29
56719;BME280;42597;40.636;0.278;2022-08-30T09:22:22;97482.31;;;28.97;61.71
56719;BME280;42597;40.636;0.278;2022-08-30T09:25:19;97482.94;;;27.76;63.92
56719;BME280;42597;40.636;0.278;2022-08-30T09:27:48;97484.19;;;28.60;63.05
56719;BME280;42597;40.636;0.278;2022-08-30T09:30:26;97474.59;;;29.01;62.08
56719;BME280;42597;40.636;0.278;2022-08-30T09:35:21;97476.31;;;29.08;61.06
56719;BME280;42597;40.636;0.278;2022-08-30T09:38:04;97477.41;;;28.70;61.57
56719;BME280;42597;40.636;0.278;2022-08-30T09:40:39;97482.25;;;28.78;60.76
56719;BME280;42597;40.636;0.278;2022-08-30T09:43:19;97487.06;;;27.50;65.50
56719;BME280;42597;40.636;0.278;2022-08-30T09:46:06;97487.09;;;27.37;66.56
56719;BME280;42597;40.636;0.278;2022-08-30T09:48:40;97475.84;;;28.60;63.89
56719;BME280;42597;40.636;0.278;2022-08-30T10:04:41;97479.88;;;29.36;60.38
56719;BME280;42597;40.636;0.278;2022-08-30T10:07:27;97465.19;;;29.63;60.08
56719;BME280;42597;40.636;0.278;2022-08-30T10:15:38;97451.13;;;29.75;58.24
56719;BME280;42597;40.636;0.278;2022-08-30T10:18:15;97456.16;;;28.94;62.86
56719;BME280;42597;40.636;0.278;2022-08-30T10:21:10;97448.78;;;29.46;60.01
56719;BME280;42597;40.636;0.278;2022-08-30T10:24:03;97454.66;;;29.67;60.05
56719;BME280;42597;40.636;0.278;2022-08-30T10:26:29;97448.81;;;29.65;60.23
56719;BME280;42597;40.636;0.278;2022-08-30T10:29:03;97442.91;;;29.44;59.78
56719;BME280;42597;40.636;0.278;2022-08-30T10:34:15;97440.13;;;29.72;60.11
56719;BME280;42597;40.636;0.278;2022-08-30T10:36:46;97452.28;;;30.02;59.53
56719;BME280;42597;40.636;0.278;2022-08-30T10:39:18;97455.94;;;29.57;60.03
56719;BME280;42597;40.636;0.278;2022-08-30T10:41:57;97440.13;;;29.72;59.60
56719;BME280;42597;40.636;0.278;2022-08-30T10:44:30;97442.00;;;29.57;59.80
56719;BME280;42597;40.636;0.278;2022-08-30T10:49:47;97435.03;;;29.06;60.99
56719;BME280;42597;40.636;0.278;2022-08-30T10:54:59;97425.19;;;30.12;57.85
56719;BME280;42597;40.636;0.278;2022-08-30T10:57:26;97405.25;;;30.37;57.22
56719;BME280;42597;40.636;0.278;2022-08-30T10:59:59;97412.50;;;30.77;57.75
56719;BME280;42597;40.636;0.278;2022-08-30T11:13:24;97420.63;;;29.81;62.39
56719;BME280;42597;40.636;0.278;2022-08-30T11:18:28;97417.19;;;30.38;61.49
56719;BME280;42597;40.636;0.278;2022-08-30T11:21:16;97426.00;;;28.34;66.48
56719;BME280;42597;40.636;0.278;2022-08-30T11:23:57;97419.84;;;30.32;61.96
56719;BME280;42597;40.636;0.278;2022-08-30T11:27:00;97427.13;;;30.30;61.48
56719;BME280;42597;40.636;0.278;2022-08-30T11:37:29;97426.34;;;30.62;60.14
56719;BME280;42597;40.636;0.278;2022-08-30T11:42:49;97422.13;;;30.00;63.43
56719;BME280;42597;40.636;0.278;2022-08-30T11:48:00;97402.16;;;30.68;60.66
56719;BME280;42597;40.636;0.278;2022-08-30T11:50:32;97402.91;;;30.69;60.61
56719;BME280;42597;40.636;0.278;2022-08-30T11:53:16;97403.38;;;30.43;61.15
56719;BME280;42597;40.636;0.278;2022-08-30T12:01:33;97395.38;;;30.36;62.83
56719;BME280;42597;40.636;0.278;2022-08-30T12:04:08;97388.44;;;29.71;63.94
56719;BME280;42597;40.636;0.278;2022-08-30T12:06:51;97383.19;;;29.73;63.60
56719;BME280;42597;40.636;0.278;2022-08-30T12:14:52;97379.47;;;29.76;61.47
56719;BME280;42597;40.636;0.278;2022-08-30T12:17:49;97366.41;;;30.34;58.74
56719;BME280;42597;40.636;0.278;2022-08-30T12:20:43;97378.59;;;29.06;64.36
56719;BME280;42597;40.636;0.278;2022-08-30T12:23:20;97368.50;;;30.72;60.45
56719;BME280;42597;40.636;0.278;2022-08-30T12:25:47;97366.50;;;30.15;62.92
56719;BME280;42597;40.636;0.278;2022-08-30T12:28:22;97365.13;;;30.68;61.02
56719;BME280;42597;40.636;0.278;2022-08-30T12:30:49;97353.66;;;30.66;60.84
56719;BME280;42597;40.636;0.278;2022-08-30T12:33:25;97362.50;;;28.73;61.41
56719;BME280;42597;40.636;0.278;2022-08-30T12:35:51;97365.41;;;30.46;61.72
56719;BME280;42597;40.636;0.278;2022-08-30T12:38:19;97368.41;;;31.29;58.65
56719;BME280;42597;40.636;0.278;2022-08-30T12:40:58;97365.31;;;30.88;59.11
56719;BME280;42597;40.636;0.278;2022-08-30T12:43:31;97352.81;;;30.98;58.71
56719;BME280;42597;40.636;0.278;2022-08-30T12:46:01;97355.19;;;30.10;60.20
56719;BME280;42597;40.636;0.278;2022-08-30T12:48:34;97336.88;;;29.15;64.60
56719;BME280;42597;40.636;0.278;2022-08-30T12:51:01;97337.75;;;30.33;61.64
56719;BME280;42597;40.636;0.278;2022-08-30T12:53:33;97335.78;;;30.96;59.18
56719;BME280;42597;40.636;0.278;2022-08-30T12:56:09;97334.81;;;30.85;60.39
56719;BME280;42597;40.636;0.278;2022-08-30T12:58:55;97330.16;;;29.58;61.18
56719;BME280;42597;40.636;0.278;2022-08-30T13:01:30;97339.13;;;28.52;62.68
56719;BME280;42597;40.636;0.278;2022-08-30T13:04:24;97325.59;;;29.00;63.92
56719;BME280;42597;40.636;0.278;2022-08-30T13:06:59;97320.44;;;28.52;65.73
56719;BME280;42597;40.636;0.278;2022-08-30T13:12:02;97313.91;;;30.80;61.62
56719;BME280;42597;40.636;0.278;2022-08-30T13:14:38;97317.13;;;30.64;62.22
56719;BME280;42597;40.636;0.278;2022-08-30T13:19:42;97327.72;;;30.27;63.50
56719;BME280;42597;40.636;0.278;2022-08-30T13:22:29;97321.88;;;30.48;63.01
56719;BME280;42597;40.636;0.278;2022-08-30T13:24:55;97306.56;;;30.20;63.54
56719;BME280;42597;40.636;0.278;2022-08-30T13:27:21;97313.38;;;30.10;64.36
56719;BME280;42597;40.636;0.278;2022-08-30T13:29:47;97316.75;;;30.23;63.93
56719;BME280;42597;40.636;0.278;2022-08-30T13:32:13;97314.50;;;30.03;64.42
56719;BME280;42597;40.636;0.278;2022-08-30T13:34:39;97301.75;;;29.87;65.02
56719;BME280;42597;40.636;0.278;2022-08-30T13:37:06;97311.16;;;29.57;66.86
56719;BME280;42597;40.636;0.278;2022-08-30T13:39:32;97296.25;;;29.69;66.58
56719;BME280;42597;40.636;0.278;2022-08-30T13:41:58;97298.09;;;29.63;66.59
56719;BME280;42597;40.636;0.278;2022-08-30T13:44:24;97301.84;;;29.50;68.92
56719;BME280;42597;40.636;0.278;2022-08-30T13:46:52;97296.84;;;29.73;69.34
56719;BME280;42597;40.636;0.278;2022-08-30T13:49:30;97299.94;;;29.75;69.48
56719;BME280;42597;40.636;0.278;2022-08-30T13:51:56;97295.16;;;29.66;70.42
56719;BME280;42597;40.636;0.278;2022-08-30T13:54:22;97285.53;;;29.25;70.71
56719;BME280;42597;40.636;0.278;2022-08-30T13:56:50;97262.97;;;29.23;70.77
56719;BME280;42597;40.636;0.278;2022-08-30T13:59:17;97255.53;;;29.20;70.59
56719;BME280;42597;40.636;0.278;2022-08-30T14:01:43;97241.03;;;29.07;71.71
56719;BME280;42597;40.636;0.278;2022-08-30T14:04:09;97246.91;;;28.81;73.58
56719;BME280;42597;40.636;0.278;2022-08-30T14:06:35;97262.22;;;28.95;73.99
56719;BME280;42597;40.636;0.278;2022-08-30T14:09:01;97284.63;;;29.10;72.99
56719;BME280;42597;40.636;0.278;2022-08-30T14:11:27;97291.56;;;28.77;73.14
56719;BME280;42597;40.636;0.278;2022-08-30T14:13:53;97276.59;;;28.75;74.74
56719;BME280;42597;40.636;0.278;2022-08-30T14:16:18;97278.16;;;28.76;75.46
56719;BME280;42597;40.636;0.278;2022-08-30T14:18:44;97284.94;;;28.47;77.12
56719;BME280;42597;40.636;0.278;2022-08-30T14:21:10;97274.03;;;28.22;78.14
56719;BME280;42597;40.636;0.278;2022-08-30T14:23:36;97260.38;;;28.46;77.74
56719;BME280;42597;40.636;0.278;2022-08-30T14:26:02;97235.34;;;28.37;78.15
56719;BME280;42597;40.636;0.278;2022-08-30T14:28:32;97231.16;;;28.23;78.90